Fellsmere, Florida
Current Conditions -  °F | °C
As of 8:53 PM on Wednesday 26 Nov 2014 (Local Time) from KVRB Reporting Station
Clear Clear  
Wind Chill:   Ceiling: Unl
Heat Index:   Visibility: 10mi
Dew Point:   Wind: 5mph
Humidity: 97%   Direction: 300°WNW
Pressure: 30.2"   Gusts: NA
Location:  27.77°N, 80.6°W
Report Text: KVRB 270153Z 30004KT 10SM CLR 09/09 A3020 RMK AO2 SLP226 T00940089
Loading
Personal Weather Stations






























Interactive Weather Map New forecast layout! Learn more

10-Day Weather Forecast

Advertisements
Track Severe Weather on mobile